sensor_id;sensor_type;location;lat;lon;timestamp;P1;durP1;ratioP1;P2;durP2;ratioP2
40995;SDS011;26723;57.478;12.066;2022-10-16T00:02:17;5.07;;;3.67;;
40995;SDS011;26723;57.478;12.066;2022-10-16T00:05:25;9.20;;;3.73;;
40995;SDS011;26723;57.478;12.066;2022-10-16T00:08:35;5.53;;;3.67;;
40995;SDS011;26723;57.478;12.066;2022-10-16T00:11:45;4.57;;;3.00;;
40995;SDS011;26723;57.478;12.066;2022-10-16T00:14:54;4.63;;;3.07;;
40995;SDS011;26723;57.478;12.066;2022-10-16T00:18:03;3.30;;;3.00;;
40995;SDS011;26723;57.478;12.066;2022-10-16T00:21:13;5.53;;;3.33;;
40995;SDS011;26723;57.478;12.066;2022-10-16T00:24:23;3.27;;;2.90;;
40995;SDS011;26723;57.478;12.066;2022-10-16T00:27:33;4.53;;;3.37;;
40995;SDS011;26723;57.478;12.066;2022-10-16T00:30:42;3.77;;;2.83;;
40995;SDS011;26723;57.478;12.066;2022-10-16T00:33:50;4.30;;;2.90;;
40995;SDS011;26723;57.478;12.066;2022-10-16T00:36:59;4.00;;;2.50;;
40995;SDS011;26723;57.478;12.066;2022-10-16T00:40:08;3.83;;;2.87;;
40995;SDS011;26723;57.478;12.066;2022-10-16T00:46:52;2.97;;;2.10;;
40995;SDS011;26723;57.478;12.066;2022-10-16T00:50:03;2.20;;;2.00;;
40995;SDS011;26723;57.478;12.066;2022-10-16T00:53:14;3.87;;;2.03;;
40995;SDS011;26723;57.478;12.066;2022-10-16T00:56:25;2.00;;;1.80;;
40995;SDS011;26723;57.478;12.066;2022-10-16T00:59:34;4.73;;;1.90;;
40995;SDS011;26723;57.478;12.066;2022-10-16T01:02:52;3.60;;;1.83;;
40995;SDS011;26723;57.478;12.066;2022-10-16T01:06:10;2.50;;;1.70;;
40995;SDS011;26723;57.478;12.066;2022-10-16T01:09:31;3.77;;;2.00;;
40995;SDS011;26723;57.478;12.066;2022-10-16T01:12:48;2.33;;;1.80;;
40995;SDS011;26723;57.478;12.066;2022-10-16T01:16:03;2.80;;;1.60;;
40995;SDS011;26723;57.478;12.066;2022-10-16T01:19:24;2.13;;;1.70;;
40995;SDS011;26723;57.478;12.066;2022-10-16T01:22:47;2.67;;;1.80;;
40995;SDS011;26723;57.478;12.066;2022-10-16T01:26:10;1.60;;;1.50;;
40995;SDS011;26723;57.478;12.066;2022-10-16T01:29:28;2.57;;;1.73;;
40995;SDS011;26723;57.478;12.066;2022-10-16T01:32:43;2.40;;;1.73;;
40995;SDS011;26723;57.478;12.066;2022-10-16T01:35:58;6.70;;;1.70;;
40995;SDS011;26723;57.478;12.066;2022-10-16T01:39:14;2.50;;;1.80;;
40995;SDS011;26723;57.478;12.066;2022-10-16T01:42:28;2.77;;;2.00;;
40995;SDS011;26723;57.478;12.066;2022-10-16T01:45:43;1.30;;;1.20;;
40995;SDS011;26723;57.478;12.066;2022-10-16T01:48:53;3.17;;;1.83;;
40995;SDS011;26723;57.478;12.066;2022-10-16T01:52:04;1.47;;;1.37;;
40995;SDS011;26723;57.478;12.066;2022-10-16T01:55:17;2.03;;;1.50;;
40995;SDS011;26723;57.478;12.066;2022-10-16T01:58:33;2.00;;;1.80;;
40995;SDS011;26723;57.478;12.066;2022-10-16T02:01:47;3.13;;;1.53;;
40995;SDS011;26723;57.478;12.066;2022-10-16T02:05:01;3.10;;;1.80;;
40995;SDS011;26723;57.478;12.066;2022-10-16T02:08:16;2.60;;;1.60;;
40995;SDS011;26723;57.478;12.066;2022-10-16T02:11:25;4.47;;;1.50;;
40995;SDS011;26723;57.478;12.066;2022-10-16T02:14:33;1.30;;;1.20;;
40995;SDS011;26723;57.478;12.066;2022-10-16T02:17:46;2.03;;;1.70;;
40995;SDS011;26723;57.478;12.066;2022-10-16T02:20:55;1.63;;;1.40;;
40995;SDS011;26723;57.478;12.066;2022-10-16T02:24:08;3.67;;;1.50;;
40995;SDS011;26723;57.478;12.066;2022-10-16T02:27:24;2.80;;;1.27;;
40995;SDS011;26723;57.478;12.066;2022-10-16T02:30:40;2.40;;;1.50;;
40995;SDS011;26723;57.478;12.066;2022-10-16T02:33:54;3.00;;;1.37;;
40995;SDS011;26723;57.478;12.066;2022-10-16T02:37:06;2.90;;;1.40;;
40995;SDS011;26723;57.478;12.066;2022-10-16T02:40:17;7.97;;;1.50;;
40995;SDS011;26723;57.478;12.066;2022-10-16T02:43:30;3.63;;;1.30;;
40995;SDS011;26723;57.478;12.066;2022-10-16T02:46:40;2.13;;;1.30;;
40995;SDS011;26723;57.478;12.066;2022-10-16T02:49:50;3.70;;;1.27;;
40995;SDS011;26723;57.478;12.066;2022-10-16T02:52:58;1.90;;;1.30;;
40995;SDS011;26723;57.478;12.066;2022-10-16T02:56:07;1.50;;;1.40;;
40995;SDS011;26723;57.478;12.066;2022-10-16T02:59:16;2.07;;;1.37;;
40995;SDS011;26723;57.478;12.066;2022-10-16T03:02:24;4.27;;;1.40;;
40995;SDS011;26723;57.478;12.066;2022-10-16T03:05:34;5.13;;;1.50;;
40995;SDS011;26723;57.478;12.066;2022-10-16T03:08:43;1.40;;;1.20;;
40995;SDS011;26723;57.478;12.066;2022-10-16T03:11:51;1.97;;;1.47;;
40995;SDS011;26723;57.478;12.066;2022-10-16T03:15:00;2.20;;;1.47;;
40995;SDS011;26723;57.478;12.066;2022-10-16T03:18:08;2.17;;;1.70;;
40995;SDS011;26723;57.478;12.066;2022-10-16T03:21:18;3.87;;;1.60;;
40995;SDS011;26723;57.478;12.066;2022-10-16T03:24:26;2.90;;;1.50;;
40995;SDS011;26723;57.478;12.066;2022-10-16T03:27:35;2.53;;;1.50;;
40995;SDS011;26723;57.478;12.066;2022-10-16T03:30:43;3.03;;;1.43;;
40995;SDS011;26723;57.478;12.066;2022-10-16T03:33:52;2.93;;;1.37;;
40995;SDS011;26723;57.478;12.066;2022-10-16T03:37:02;2.30;;;1.40;;
40995;SDS011;26723;57.478;12.066;2022-10-16T03:40:10;2.07;;;1.30;;
40995;SDS011;26723;57.478;12.066;2022-10-16T03:43:19;3.00;;;1.73;;
40995;SDS011;26723;57.478;12.066;2022-10-16T03:46:27;2.33;;;1.80;;
40995;SDS011;26723;57.478;12.066;2022-10-16T03:49:36;1.77;;;1.40;;
40995;SDS011;26723;57.478;12.066;2022-10-16T03:52:46;2.83;;;1.63;;
40995;SDS011;26723;57.478;12.066;2022-10-16T03:55:54;2.30;;;1.93;;
40995;SDS011;26723;57.478;12.066;2022-10-16T03:59:03;3.13;;;2.13;;
40995;SDS011;26723;57.478;12.066;2022-10-16T04:02:11;3.77;;;2.40;;
40995;SDS011;26723;57.478;12.066;2022-10-16T04:05:20;2.50;;;2.10;;
40995;SDS011;26723;57.478;12.066;2022-10-16T04:08:30;4.50;;;2.53;;
40995;SDS011;26723;57.478;12.066;2022-10-16T04:11:40;2.83;;;2.03;;
40995;SDS011;26723;57.478;12.066;2022-10-16T04:14:49;4.13;;;2.70;;
40995;SDS011;26723;57.478;12.066;2022-10-16T04:17:57;3.27;;;2.17;;
40995;SDS011;26723;57.478;12.066;2022-10-16T04:21:06;2.20;;;1.80;;
40995;SDS011;26723;57.478;12.066;2022-10-16T04:24:16;6.13;;;2.07;;
40995;SDS011;26723;57.478;12.066;2022-10-16T04:27:25;2.67;;;2.10;;
40995;SDS011;26723;57.478;12.066;2022-10-16T04:30:37;3.17;;;2.00;;
40995;SDS011;26723;57.478;12.066;2022-10-16T04:33:46;1.90;;;1.70;;
40995;SDS011;26723;57.478;12.066;2022-10-16T04:36:54;4.20;;;1.77;;
40995;SDS011;26723;57.478;12.066;2022-10-16T04:40:05;2.40;;;1.87;;
40995;SDS011;26723;57.478;12.066;2022-10-16T04:43:14;2.67;;;1.70;;
40995;SDS011;26723;57.478;12.066;2022-10-16T04:46:22;3.23;;;1.80;;
40995;SDS011;26723;57.478;12.066;2022-10-16T04:49:31;3.47;;;2.13;;
40995;SDS011;26723;57.478;12.066;2022-10-16T04:52:39;2.63;;;1.80;;
40995;SDS011;26723;57.478;12.066;2022-10-16T04:55:49;3.70;;;1.93;;
40995;SDS011;26723;57.478;12.066;2022-10-16T04:58:58;3.93;;;1.80;;
40995;SDS011;26723;57.478;12.066;2022-10-16T05:02:06;3.90;;;2.13;;
40995;SDS011;26723;57.478;12.066;2022-10-16T05:05:15;4.27;;;2.10;;
40995;SDS011;26723;57.478;12.066;2022-10-16T05:08:25;3.50;;;2.27;;
40995;SDS011;26723;57.478;12.066;2022-10-16T05:11:35;5.53;;;2.60;;
40995;SDS011;26723;57.478;12.066;2022-10-16T05:14:43;4.10;;;2.40;;
40995;SDS011;26723;57.478;12.066;2022-10-16T05:17:52;5.23;;;2.20;;
40995;SDS011;26723;57.478;12.066;2022-10-16T05:21:01;3.53;;;2.40;;
40995;SDS011;26723;57.478;12.066;2022-10-16T05:24:09;4.60;;;2.63;;
40995;SDS011;26723;57.478;12.066;2022-10-16T05:27:19;3.57;;;2.00;;
40995;SDS011;26723;57.478;12.066;2022-10-16T05:30:28;4.27;;;2.47;;
40995;SDS011;26723;57.478;12.066;2022-10-16T05:33:36;2.60;;;2.40;;
40995;SDS011;26723;57.478;12.066;2022-10-16T05:36:45;2.97;;;2.40;;
40995;SDS011;26723;57.478;12.066;2022-10-16T05:39:54;3.90;;;2.43;;
40995;SDS011;26723;57.478;12.066;2022-10-16T05:43:03;3.70;;;2.57;;
40995;SDS011;26723;57.478;12.066;2022-10-16T05:46:12;3.50;;;2.10;;
40995;SDS011;26723;57.478;12.066;2022-10-16T05:49:21;2.53;;;2.10;;
40995;SDS011;26723;57.478;12.066;2022-10-16T05:52:29;2.37;;;2.17;;
40995;SDS011;26723;57.478;12.066;2022-10-16T05:55:38;3.67;;;2.00;;
40995;SDS011;26723;57.478;12.066;2022-10-16T05:58:48;3.43;;;1.83;;
40995;SDS011;26723;57.478;12.066;2022-10-16T06:01:56;3.83;;;2.10;;
40995;SDS011;26723;57.478;12.066;2022-10-16T06:05:05;4.00;;;2.20;;
40995;SDS011;26723;57.478;12.066;2022-10-16T06:08:13;5.60;;;2.77;;
40995;SDS011;26723;57.478;12.066;2022-10-16T06:11:23;2.30;;;2.07;;
40995;SDS011;26723;57.478;12.066;2022-10-16T06:14:34;3.73;;;1.70;;
40995;SDS011;26723;57.478;12.066;2022-10-16T06:17:43;2.07;;;1.70;;
40995;SDS011;26723;57.478;12.066;2022-10-16T06:20:51;3.17;;;1.80;;
40995;SDS011;26723;57.478;12.066;2022-10-16T06:24:00;2.50;;;1.80;;
40995;SDS011;26723;57.478;12.066;2022-10-16T06:27:08;1.57;;;1.30;;
40995;SDS011;26723;57.478;12.066;2022-10-16T06:30:18;2.73;;;2.03;;
40995;SDS011;26723;57.478;12.066;2022-10-16T06:33:26;1.97;;;1.67;;
40995;SDS011;26723;57.478;12.066;2022-10-16T06:36:35;4.00;;;2.03;;
40995;SDS011;26723;57.478;12.066;2022-10-16T06:39:44;1.70;;;1.60;;
40995;SDS011;26723;57.478;12.066;2022-10-16T06:42:54;1.70;;;1.43;;
40995;SDS011;26723;57.478;12.066;2022-10-16T06:46:05;4.00;;;1.33;;
40995;SDS011;26723;57.478;12.066;2022-10-16T06:49:15;2.27;;;1.40;;
40995;SDS011;26723;57.478;12.066;2022-10-16T06:52:28;1.60;;;1.50;;
40995;SDS011;26723;57.478;12.066;2022-10-16T06:55:37;2.27;;;1.43;;
40995;SDS011;26723;57.478;12.066;2022-10-16T06:58:46;1.73;;;1.00;;
40995;SDS011;26723;57.478;12.066;2022-10-16T07:01:56;2.60;;;1.10;;
40995;SDS011;26723;57.478;12.066;2022-10-16T07:05:04;2.47;;;1.33;;
40995;SDS011;26723;57.478;12.066;2022-10-16T07:08:13;1.37;;;1.00;;
40995;SDS011;26723;57.478;12.066;2022-10-16T07:11:22;3.63;;;1.00;;
40995;SDS011;26723;57.478;12.066;2022-10-16T07:14:31;3.47;;;1.27;;
40995;SDS011;26723;57.478;12.066;2022-10-16T07:17:41;2.77;;;1.20;;
40995;SDS011;26723;57.478;12.066;2022-10-16T07:20:49;2.40;;;1.13;;
40995;SDS011;26723;57.478;12.066;2022-10-16T07:23:58;3.13;;;1.27;;
40995;SDS011;26723;57.478;12.066;2022-10-16T07:27:08;2.53;;;1.03;;
40995;SDS011;26723;57.478;12.066;2022-10-16T07:30:16;2.37;;;1.40;;
40995;SDS011;26723;57.478;12.066;2022-10-16T07:33:26;2.70;;;1.43;;
40995;SDS011;26723;57.478;12.066;2022-10-16T07:36:35;2.87;;;1.47;;
40995;SDS011;26723;57.478;12.066;2022-10-16T07:39:43;2.80;;;1.47;;
40995;SDS011;26723;57.478;12.066;2022-10-16T07:42:52;4.83;;;1.43;;
40995;SDS011;26723;57.478;12.066;2022-10-16T07:46:00;3.80;;;1.60;;
40995;SDS011;26723;57.478;12.066;2022-10-16T07:49:13;2.93;;;1.40;;
40995;SDS011;26723;57.478;12.066;2022-10-16T07:52:22;2.20;;;1.33;;
40995;SDS011;26723;57.478;12.066;2022-10-16T07:55:31;2.93;;;1.30;;
40995;SDS011;26723;57.478;12.066;2022-10-16T07:58:39;4.97;;;1.60;;
40995;SDS011;26723;57.478;12.066;2022-10-16T08:01:48;3.27;;;1.50;;
40995;SDS011;26723;57.478;12.066;2022-10-16T08:04:58;3.53;;;1.30;;
40995;SDS011;26723;57.478;12.066;2022-10-16T08:08:10;3.50;;;1.20;;
40995;SDS011;26723;57.478;12.066;2022-10-16T08:11:20;5.10;;;1.30;;
40995;SDS011;26723;57.478;12.066;2022-10-16T08:14:29;6.43;;;1.60;;
40995;SDS011;26723;57.478;12.066;2022-10-16T08:17:38;2.60;;;1.60;;
40995;SDS011;26723;57.478;12.066;2022-10-16T08:20:48;4.93;;;1.63;;
40995;SDS011;26723;57.478;12.066;2022-10-16T08:24:03;2.60;;;1.40;;
40995;SDS011;26723;57.478;12.066;2022-10-16T08:27:11;3.83;;;1.40;;
40995;SDS011;26723;57.478;12.066;2022-10-16T08:30:21;2.47;;;1.40;;
40995;SDS011;26723;57.478;12.066;2022-10-16T08:33:30;2.37;;;1.60;;
40995;SDS011;26723;57.478;12.066;2022-10-16T08:36:40;2.77;;;1.57;;
40995;SDS011;26723;57.478;12.066;2022-10-16T08:39:48;4.20;;;1.90;;
40995;SDS011;26723;57.478;12.066;2022-10-16T08:43:05;2.97;;;1.50;;
40995;SDS011;26723;57.478;12.066;2022-10-16T08:46:32;5.80;;;1.63;;
40995;SDS011;26723;57.478;12.066;2022-10-16T08:49:55;7.10;;;1.53;;
40995;SDS011;26723;57.478;12.066;2022-10-16T08:53:09;4.60;;;1.63;;
40995;SDS011;26723;57.478;12.066;2022-10-16T08:56:23;3.77;;;1.70;;
40995;SDS011;26723;57.478;12.066;2022-10-16T08:59:33;4.67;;;1.50;;
40995;SDS011;26723;57.478;12.066;2022-10-16T09:02:43;2.60;;;1.43;;
40995;SDS011;26723;57.478;12.066;2022-10-16T09:06:05;3.23;;;1.43;;
40995;SDS011;26723;57.478;12.066;2022-10-16T09:09:32;2.53;;;1.50;;
40995;SDS011;26723;57.478;12.066;2022-10-16T09:12:55;5.67;;;1.70;;
40995;SDS011;26723;57.478;12.066;2022-10-16T09:16:12;4.20;;;1.63;;
40995;SDS011;26723;57.478;12.066;2022-10-16T09:19:24;7.90;;;1.70;;
40995;SDS011;26723;57.478;12.066;2022-10-16T09:22:37;2.40;;;1.20;;
40995;SDS011;26723;57.478;12.066;2022-10-16T09:25:48;3.67;;;1.50;;
40995;SDS011;26723;57.478;12.066;2022-10-16T09:28:57;6.17;;;2.13;;
40995;SDS011;26723;57.478;12.066;2022-10-16T09:32:08;3.00;;;1.40;;
40995;SDS011;26723;57.478;12.066;2022-10-16T09:35:20;2.07;;;1.50;;
40995;SDS011;26723;57.478;12.066;2022-10-16T09:38:30;2.73;;;1.50;;
40995;SDS011;26723;57.478;12.066;2022-10-16T09:41:42;5.97;;;1.53;;
40995;SDS011;26723;57.478;12.066;2022-10-16T09:44:52;5.70;;;1.77;;
40995;SDS011;26723;57.478;12.066;2022-10-16T09:48:02;6.10;;;1.73;;
40995;SDS011;26723;57.478;12.066;2022-10-16T09:51:19;5.10;;;1.57;;
40995;SDS011;26723;57.478;12.066;2022-10-16T09:54:30;3.30;;;1.20;;
40995;SDS011;26723;57.478;12.066;2022-10-16T09:57:49;3.60;;;1.40;;
40995;SDS011;26723;57.478;12.066;2022-10-16T10:00:58;3.77;;;1.70;;
40995;SDS011;26723;57.478;12.066;2022-10-16T10:04:07;2.00;;;1.20;;
40995;SDS011;26723;57.478;12.066;2022-10-16T10:07:20;4.27;;;1.37;;
40995;SDS011;26723;57.478;12.066;2022-10-16T10:10:34;3.05;;;1.00;;
40995;SDS011;26723;57.478;12.066;2022-10-16T10:13:49;3.45;;;1.55;;
40995;SDS011;26723;57.478;12.066;2022-10-16T10:20:23;3.10;;;1.33;;
40995;SDS011;26723;57.478;12.066;2022-10-16T10:23:34;2.47;;;1.27;;
40995;SDS011;26723;57.478;12.066;2022-10-16T10:26:44;4.63;;;1.53;;
40995;SDS011;26723;57.478;12.066;2022-10-16T10:30:01;3.23;;;1.47;;
40995;SDS011;26723;57.478;12.066;2022-10-16T10:33:16;4.57;;;1.30;;
40995;SDS011;26723;57.478;12.066;2022-10-16T10:36:33;2.43;;;1.47;;
40995;SDS011;26723;57.478;12.066;2022-10-16T10:39:46;4.33;;;1.77;;
40995;SDS011;26723;57.478;12.066;2022-10-16T10:43:04;4.03;;;1.67;;
40995;SDS011;26723;57.478;12.066;2022-10-16T10:46:23;2.60;;;1.63;;
40995;SDS011;26723;57.478;12.066;2022-10-16T10:49:45;2.23;;;1.50;;
40995;SDS011;26723;57.478;12.066;2022-10-16T10:53:04;7.17;;;1.90;;
40995;SDS011;26723;57.478;12.066;2022-10-16T10:56:23;3.67;;;1.63;;
40995;SDS011;26723;57.478;12.066;2022-10-16T10:59:53;4.57;;;2.00;;
40995;SDS011;26723;57.478;12.066;2022-10-16T11:03:24;5.07;;;1.57;;
40995;SDS011;26723;57.478;12.066;2022-10-16T11:06:42;5.30;;;1.83;;
40995;SDS011;26723;57.478;12.066;2022-10-16T11:09:53;5.47;;;1.70;;
40995;SDS011;26723;57.478;12.066;2022-10-16T11:13:15;4.13;;;1.70;;
40995;SDS011;26723;57.478;12.066;2022-10-16T11:16:37;2.33;;;1.40;;
40995;SDS011;26723;57.478;12.066;2022-10-16T11:19:52;4.70;;;1.57;;
40995;SDS011;26723;57.478;12.066;2022-10-16T11:23:05;3.70;;;1.40;;
40995;SDS011;26723;57.478;12.066;2022-10-16T11:26:19;6.13;;;1.83;;
40995;SDS011;26723;57.478;12.066;2022-10-16T11:29:30;3.33;;;1.20;;
40995;SDS011;26723;57.478;12.066;2022-10-16T11:32:47;3.37;;;1.30;;
40995;SDS011;26723;57.478;12.066;2022-10-16T11:36:08;2.87;;;1.40;;
40995;SDS011;26723;57.478;12.066;2022-10-16T11:39:24;4.73;;;1.60;;
40995;SDS011;26723;57.478;12.066;2022-10-16T11:42:37;3.97;;;1.60;;
40995;SDS011;26723;57.478;12.066;2022-10-16T11:45:49;3.93;;;1.30;;
40995;SDS011;26723;57.478;12.066;2022-10-16T11:49:02;6.27;;;1.70;;
40995;SDS011;26723;57.478;12.066;2022-10-16T11:52:18;3.73;;;1.40;;
40995;SDS011;26723;57.478;12.066;2022-10-16T11:55:34;4.27;;;1.60;;
40995;SDS011;26723;57.478;12.066;2022-10-16T11:58:52;2.97;;;0.93;;
40995;SDS011;26723;57.478;12.066;2022-10-16T12:02:11;3.87;;;1.00;;
40995;SDS011;26723;57.478;12.066;2022-10-16T12:05:35;4.10;;;1.43;;
40995;SDS011;26723;57.478;12.066;2022-10-16T12:09:02;5.07;;;1.50;;
40995;SDS011;26723;57.478;12.066;2022-10-16T12:12:24;4.17;;;1.37;;
40995;SDS011;26723;57.478;12.066;2022-10-16T12:15:38;3.17;;;1.10;;
40995;SDS011;26723;57.478;12.066;2022-10-16T12:19:12;1.63;;;0.70;;
40995;SDS011;26723;57.478;12.066;2022-10-16T12:22:21;2.63;;;0.80;;
40995;SDS011;26723;57.478;12.066;2022-10-16T12:25:34;1.40;;;0.77;;
40995;SDS011;26723;57.478;12.066;2022-10-16T12:28:45;0.77;;;0.50;;
40995;SDS011;26723;57.478;12.066;2022-10-16T12:31:58;0.97;;;0.63;;
40995;SDS011;26723;57.478;12.066;2022-10-16T12:35:16;1.93;;;0.60;;
40995;SDS011;26723;57.478;12.066;2022-10-16T12:38:27;2.50;;;0.93;;
40995;SDS011;26723;57.478;12.066;2022-10-16T12:41:39;2.60;;;1.23;;
40995;SDS011;26723;57.478;12.066;2022-10-16T12:44:48;1.90;;;0.80;;
40995;SDS011;26723;57.478;12.066;2022-10-16T12:47:57;2.43;;;0.70;;
40995;SDS011;26723;57.478;12.066;2022-10-16T12:51:11;1.13;;;0.57;;
40995;SDS011;26723;57.478;12.066;2022-10-16T12:54:29;1.60;;;0.77;;
40995;SDS011;26723;57.478;12.066;2022-10-16T12:57:45;2.10;;;0.67;;
40995;SDS011;26723;57.478;12.066;2022-10-16T13:01:12;1.40;;;0.50;;
40995;SDS011;26723;57.478;12.066;2022-10-16T13:04:34;1.37;;;0.87;;
40995;SDS011;26723;57.478;12.066;2022-10-16T13:07:53;3.23;;;0.97;;
40995;SDS011;26723;57.478;12.066;2022-10-16T13:11:11;4.33;;;1.00;;
40995;SDS011;26723;57.478;12.066;2022-10-16T13:14:35;2.80;;;0.73;;
40995;SDS011;26723;57.478;12.066;2022-10-16T13:18:01;3.50;;;1.20;;
40995;SDS011;26723;57.478;12.066;2022-10-16T13:21:22;4.07;;;0.93;;
40995;SDS011;26723;57.478;12.066;2022-10-16T13:24:46;3.83;;;0.87;;
40995;SDS011;26723;57.478;12.066;2022-10-16T13:28:01;2.33;;;0.77;;
40995;SDS011;26723;57.478;12.066;2022-10-16T13:31:14;1.23;;;0.47;;
40995;SDS011;26723;57.478;12.066;2022-10-16T13:34:26;1.70;;;0.90;;
40995;SDS011;26723;57.478;12.066;2022-10-16T13:37:35;1.30;;;0.80;;
40995;SDS011;26723;57.478;12.066;2022-10-16T13:40:48;2.47;;;1.00;;
40995;SDS011;26723;57.478;12.066;2022-10-16T13:43:58;2.40;;;1.07;;
40995;SDS011;26723;57.478;12.066;2022-10-16T13:47:11;4.13;;;1.87;;
40995;SDS011;26723;57.478;12.066;2022-10-16T13:50:25;2.20;;;0.93;;
40995;SDS011;26723;57.478;12.066;2022-10-16T13:53:34;3.63;;;1.33;;
40995;SDS011;26723;57.478;12.066;2022-10-16T13:56:43;2.50;;;1.23;;
40995;SDS011;26723;57.478;12.066;2022-10-16T13:59:53;4.43;;;1.13;;
40995;SDS011;26723;57.478;12.066;2022-10-16T14:03:04;3.93;;;1.20;;
40995;SDS011;26723;57.478;12.066;2022-10-16T14:06:15;2.07;;;1.20;;
40995;SDS011;26723;57.478;12.066;2022-10-16T14:09:28;3.37;;;1.20;;
40995;SDS011;26723;57.478;12.066;2022-10-16T14:12:38;4.40;;;1.20;;
40995;SDS011;26723;57.478;12.066;2022-10-16T14:15:47;1.10;;;0.80;;
40995;SDS011;26723;57.478;12.066;2022-10-16T14:19:01;3.80;;;1.60;;
40995;SDS011;26723;57.478;12.066;2022-10-16T14:22:19;3.87;;;1.30;;
40995;SDS011;26723;57.478;12.066;2022-10-16T14:25:34;4.17;;;1.30;;
40995;SDS011;26723;57.478;12.066;2022-10-16T14:28:43;4.13;;;1.10;;
40995;SDS011;26723;57.478;12.066;2022-10-16T14:31:55;5.10;;;1.40;;
40995;SDS011;26723;57.478;12.066;2022-10-16T14:38:36;3.50;;;1.30;;
40995;SDS011;26723;57.478;12.066;2022-10-16T14:41:48;3.60;;;1.37;;
40995;SDS011;26723;57.478;12.066;2022-10-16T14:44:58;5.97;;;1.40;;
40995;SDS011;26723;57.478;12.066;2022-10-16T14:48:17;2.63;;;1.23;;
40995;SDS011;26723;57.478;12.066;2022-10-16T14:51:32;3.57;;;1.60;;
40995;SDS011;26723;57.478;12.066;2022-10-16T14:54:40;5.00;;;1.40;;
40995;SDS011;26723;57.478;12.066;2022-10-16T14:57:52;4.00;;;1.20;;
40995;SDS011;26723;57.478;12.066;2022-10-16T15:01:09;5.00;;;1.50;;
40995;SDS011;26723;57.478;12.066;2022-10-16T15:04:20;2.77;;;1.30;;
40995;SDS011;26723;57.478;12.066;2022-10-16T15:07:34;4.13;;;1.60;;
40995;SDS011;26723;57.478;12.066;2022-10-16T15:10:45;3.07;;;1.27;;
40995;SDS011;26723;57.478;12.066;2022-10-16T15:14:00;2.90;;;1.40;;
40995;SDS011;26723;57.478;12.066;2022-10-16T15:17:16;2.53;;;1.27;;
40995;SDS011;26723;57.478;12.066;2022-10-16T15:20:35;2.53;;;1.17;;
40995;SDS011;26723;57.478;12.066;2022-10-16T15:23:59;4.70;;;1.47;;
40995;SDS011;26723;57.478;12.066;2022-10-16T15:27:24;5.57;;;1.50;;
40995;SDS011;26723;57.478;12.066;2022-10-16T15:30:33;3.40;;;1.30;;
40995;SDS011;26723;57.478;12.066;2022-10-16T15:33:42;2.57;;;0.97;;
40995;SDS011;26723;57.478;12.066;2022-10-16T15:36:50;4.27;;;1.20;;
40995;SDS011;26723;57.478;12.066;2022-10-16T15:40:00;2.93;;;1.53;;
40995;SDS011;26723;57.478;12.066;2022-10-16T15:43:08;6.50;;;1.60;;
40995;SDS011;26723;57.478;12.066;2022-10-16T15:46:18;6.93;;;1.50;;
40995;SDS011;26723;57.478;12.066;2022-10-16T15:49:28;4.73;;;1.30;;
40995;SDS011;26723;57.478;12.066;2022-10-16T15:52:36;3.63;;;1.40;;
40995;SDS011;26723;57.478;12.066;2022-10-16T15:55:47;5.77;;;1.60;;
40995;SDS011;26723;57.478;12.066;2022-10-16T15:58:56;6.57;;;1.57;;
40995;SDS011;26723;57.478;12.066;2022-10-16T16:02:08;3.60;;;1.40;;
40995;SDS011;26723;57.478;12.066;2022-10-16T16:05:19;2.63;;;1.10;;
40995;SDS011;26723;57.478;12.066;2022-10-16T16:08:32;2.30;;;1.17;;
40995;SDS011;26723;57.478;12.066;2022-10-16T16:11:43;2.80;;;1.30;;
40995;SDS011;26723;57.478;12.066;2022-10-16T16:14:51;3.13;;;1.30;;
40995;SDS011;26723;57.478;12.066;2022-10-16T16:18:00;4.10;;;1.40;;
40995;SDS011;26723;57.478;12.066;2022-10-16T16:21:17;2.73;;;1.27;;
40995;SDS011;26723;57.478;12.066;2022-10-16T16:24:25;2.50;;;1.40;;
40995;SDS011;26723;57.478;12.066;2022-10-16T16:27:41;4.10;;;1.30;;
40995;SDS011;26723;57.478;12.066;2022-10-16T16:30:53;5.43;;;1.20;;
40995;SDS011;26723;57.478;12.066;2022-10-16T16:34:02;3.70;;;0.80;;
40995;SDS011;26723;57.478;12.066;2022-10-16T16:37:10;3.57;;;1.30;;
40995;SDS011;26723;57.478;12.066;2022-10-16T16:40:19;5.47;;;1.33;;
40995;SDS011;26723;57.478;12.066;2022-10-16T16:43:29;4.37;;;1.17;;
40995;SDS011;26723;57.478;12.066;2022-10-16T16:46:38;4.10;;;1.33;;
40995;SDS011;26723;57.478;12.066;2022-10-16T16:49:46;4.17;;;1.40;;
40995;SDS011;26723;57.478;12.066;2022-10-16T16:52:55;5.80;;;1.60;;
40995;SDS011;26723;57.478;12.066;2022-10-16T16:56:04;5.10;;;1.23;;
40995;SDS011;26723;57.478;12.066;2022-10-16T16:59:15;4.73;;;1.53;;
40995;SDS011;26723;57.478;12.066;2022-10-16T17:02:26;2.77;;;1.03;;
40995;SDS011;26723;57.478;12.066;2022-10-16T17:05:34;2.43;;;1.13;;
40995;SDS011;26723;57.478;12.066;2022-10-16T17:08:43;4.03;;;1.20;;
40995;SDS011;26723;57.478;12.066;2022-10-16T17:11:52;2.20;;;1.20;;
40995;SDS011;26723;57.478;12.066;2022-10-16T17:15:05;5.80;;;1.20;;
40995;SDS011;26723;57.478;12.066;2022-10-16T17:18:14;4.70;;;1.27;;
40995;SDS011;26723;57.478;12.066;2022-10-16T17:21:23;3.80;;;1.30;;
40995;SDS011;26723;57.478;12.066;2022-10-16T17:24:36;4.40;;;1.40;;
40995;SDS011;26723;57.478;12.066;2022-10-16T17:27:47;3.27;;;1.13;;
40995;SDS011;26723;57.478;12.066;2022-10-16T17:30:57;3.33;;;1.30;;
40995;SDS011;26723;57.478;12.066;2022-10-16T17:34:20;3.13;;;1.30;;
40995;SDS011;26723;57.478;12.066;2022-10-16T17:37:30;6.53;;;1.70;;
40995;SDS011;26723;57.478;12.066;2022-10-16T17:40:39;4.50;;;1.73;;
40995;SDS011;26723;57.478;12.066;2022-10-16T17:43:48;5.43;;;1.40;;
40995;SDS011;26723;57.478;12.066;2022-10-16T17:46:58;5.60;;;1.30;;
40995;SDS011;26723;57.478;12.066;2022-10-16T17:50:07;4.10;;;2.17;;
40995;SDS011;26723;57.478;12.066;2022-10-16T17:53:21;3.80;;;1.87;;
40995;SDS011;26723;57.478;12.066;2022-10-16T17:56:29;4.77;;;1.50;;
40995;SDS011;26723;57.478;12.066;2022-10-16T17:59:38;4.67;;;1.40;;
40995;SDS011;26723;57.478;12.066;2022-10-16T18:02:49;5.20;;;1.63;;
40995;SDS011;26723;57.478;12.066;2022-10-16T18:06:00;7.07;;;1.37;;
40995;SDS011;26723;57.478;12.066;2022-10-16T18:09:15;6.17;;;1.40;;
40995;SDS011;26723;57.478;12.066;2022-10-16T18:12:28;5.20;;;1.70;;
40995;SDS011;26723;57.478;12.066;2022-10-16T18:15:41;5.93;;;1.60;;
40995;SDS011;26723;57.478;12.066;2022-10-16T18:19:03;2.93;;;1.37;;
40995;SDS011;26723;57.478;12.066;2022-10-16T18:22:16;4.63;;;1.53;;
40995;SDS011;26723;57.478;12.066;2022-10-16T18:25:29;6.33;;;1.80;;
40995;SDS011;26723;57.478;12.066;2022-10-16T18:28:38;4.37;;;1.60;;
40995;SDS011;26723;57.478;12.066;2022-10-16T18:31:50;3.13;;;1.37;;
40995;SDS011;26723;57.478;12.066;2022-10-16T18:35:04;4.50;;;1.57;;
40995;SDS011;26723;57.478;12.066;2022-10-16T18:38:14;5.47;;;1.50;;
40995;SDS011;26723;57.478;12.066;2022-10-16T18:41:22;7.20;;;1.47;;
40995;SDS011;26723;57.478;12.066;2022-10-16T18:44:32;4.27;;;1.30;;
40995;SDS011;26723;57.478;12.066;2022-10-16T18:47:40;6.60;;;1.30;;
40995;SDS011;26723;57.478;12.066;2022-10-16T18:50:50;4.13;;;1.73;;
40995;SDS011;26723;57.478;12.066;2022-10-16T18:53:59;7.90;;;1.47;;
40995;SDS011;26723;57.478;12.066;2022-10-16T18:57:16;3.80;;;1.20;;
40995;SDS011;26723;57.478;12.066;2022-10-16T19:00:31;3.23;;;1.47;;
40995;SDS011;26723;57.478;12.066;2022-10-16T19:03:40;5.77;;;1.47;;
40995;SDS011;26723;57.478;12.066;2022-10-16T19:06:57;5.53;;;1.77;;
40995;SDS011;26723;57.478;12.066;2022-10-16T19:10:06;7.57;;;1.73;;